Time;durP1;ratioP1;P1;durP2;ratioP2;P2;SDS_P1;SDS_P2;PMS_P1;PMS_P2;Temp;Humidity;BMP_temperature;BMP_pressure;BME280_temperature;BME280_humidity;BME280_pressure;Samples;Min_cycle;Max_cycle;Signal;HPM_P1;HPM_P2
2022/01/09 00:00:04;;;;;;;;;;;7.00;99.90;;;;;;5010462;28;20008;-70
2022/01/09 00:02:30;;;;;;;;;;;7.00;99.90;;;;;;5029541;28;20004;-74
2022/01/09 00:04:55;;;;;;;;;;;6.90;99.90;;;;;;5035685;28;20205;-72
2022/01/09 00:07:21;;;;;;;;;;;6.80;99.90;;;;;;5032247;28;19924;-71
2022/01/09 00:09:46;;;;;;;;;;;6.80;99.90;;;;;;5040867;28;19913;-72
2022/01/09 00:12:12;;;;;;;;;;;6.80;99.90;;;;;;5013988;28;19966;-74
2022/01/09 00:14:38;;;;;;;;;;;6.80;99.90;;;;;;5027495;28;19959;-69
2022/01/09 00:17:04;;;;;;;;;;;6.80;99.90;;;;;;5033918;28;19999;-72
2022/01/09 00:19:29;;;;;;;;;;;6.80;99.90;;;;;;5040950;28;20285;-75
2022/01/09 00:21:55;;;;;;;;;;;6.80;99.90;;;;;;5042994;28;20498;-70
2022/01/09 00:24:20;;;;;;;;;;;6.80;99.90;;;;;;5036431;28;19913;-72
2022/01/09 00:26:46;;;;;;;;;;;6.80;99.90;;;;;;5026940;28;20043;-71
2022/01/09 00:29:11;;;;;;;;;;;6.80;99.90;;;;;;5026147;28;20286;-74
2022/01/09 00:31:37;;;;;;;;;;;6.80;99.90;;;;;;5042644;28;19913;-73
2022/01/09 00:34:02;;;;;;;;;;;6.90;99.90;;;;;;5031468;28;19912;-70
2022/01/09 00:36:28;;;;;;;;;;;6.90;99.90;;;;;;5022134;28;20290;-69
2022/01/09 00:38:54;;;;;;;;;;;7.00;99.90;;;;;;5039704;28;19948;-71
2022/01/09 00:41:19;;;;;;;;;;;7.00;99.90;;;;;;5036197;28;20288;-70
2022/01/09 00:43:45;;;;;;;;;;;7.00;99.90;;;;;;5031150;28;19921;-71
2022/01/09 00:46:10;;;;;;;;;;;7.00;99.90;;;;;;5026471;28;19925;-71
2022/01/09 00:48:36;;;;;;;;;;;7.00;99.90;;;;;;5036308;28;19927;-70
2022/01/09 00:51:01;;;;;;;;;;;7.00;99.90;;;;;;5028018;28;19948;-70
2022/01/09 00:53:27;;;;;;;;;;;7.00;99.90;;;;;;5027259;28;19909;-69
2022/01/09 00:55:52;;;;;;;;;;;7.00;99.90;;;;;;5025709;28;20420;-69
2022/01/09 00:58:18;;;;;;;;;;;7.10;99.90;;;;;;5025703;28;20360;-71
2022/01/09 01:00:43;;;;;;;;;;;7.10;99.90;;;;;;5022544;28;20297;-69
2022/01/09 01:03:09;;;;;;;;;;;7.00;99.90;;;;;;5025803;28;19917;-71
2022/01/09 01:05:34;;;;;;;;;;;7.00;99.90;;;;;;5026072;28;20019;-70
2022/01/09 01:08:00;;;;;;;;;;;7.00;99.90;;;;;;5038219;28;19971;-70
2022/01/09 01:10:25;;;;;;;;;;;7.00;99.90;;;;;;5045434;28;20094;-69
2022/01/09 01:12:51;;;;;;;;;;;7.00;99.90;;;;;;5046796;28;20688;-70
2022/01/09 01:15:16;;;;;;;;;;;6.90;99.90;;;;;;5054686;28;19913;-70
2022/01/09 01:17:42;;;;;;;;;;;6.90;99.90;;;;;;5022735;28;19967;-69
2022/01/09 01:20:08;;;;;;;;;;;7.00;99.90;;;;;;5038092;28;20003;-68
2022/01/09 01:22:34;;;;;;;;;;;7.00;99.90;;;;;;5026129;28;20399;-70
2022/01/09 01:25:00;;;;;;;;;;;7.00;99.90;;;;;;5032342;28;19963;-70
2022/01/09 01:27:27;;;;;;;;;;;7.00;99.90;;;;;;5045148;28;20248;-71
2022/01/09 01:29:52;;;;;;;;;;;7.00;99.90;;;;;;5043934;28;20011;-70
2022/01/09 01:32:18;;;;;;;;;;;6.90;99.90;;;;;;5021441;28;20173;-71
2022/01/09 01:34:43;;;;;;;;;;;6.90;99.90;;;;;;5016671;28;19947;-72
2022/01/09 01:37:09;;;;;;;;;;;6.80;99.90;;;;;;5025366;28;19913;-71
2022/01/09 01:39:34;;;;;;;;;;;6.90;99.90;;;;;;5024999;28;20315;-69
2022/01/09 01:42:00;;;;;;;;;;;7.00;99.90;;;;;;5007757;28;20106;-71
2022/01/09 01:44:36;;;;;;;;;;;6.90;99.90;;;;;;5024149;28;20400;-69
2022/01/09 01:47:02;;;;;;;;;;;6.80;99.90;;;;;;5030649;28;20326;-67
2022/01/09 01:49:27;;;;;;;;;;;6.90;99.90;;;;;;5043969;28;19917;-70
2022/01/09 01:51:53;;;;;;;;;;;6.80;99.90;;;;;;5027324;28;19913;-71
2022/01/09 01:54:20;;;;;;;;;;;6.80;99.90;;;;;;5037297;28;20117;-70
2022/01/09 01:56:45;;;;;;;;;;;6.90;99.90;;;;;;5032985;28;19909;-70
2022/01/09 01:59:11;;;;;;;;;;;6.80;99.90;;;;;;5023730;28;20421;-69
2022/01/09 02:01:36;;;;;;;;;;;6.80;99.90;;;;;;5024173;28;20175;-69
2022/01/09 02:04:03;;;;;;;;;;;6.80;99.90;;;;;;5024698;28;20045;-72
2022/01/09 02:06:29;;;;;;;;;;;6.80;99.90;;;;;;5025104;28;19928;-68
2022/01/09 02:08:54;;;;;;;;;;;6.80;99.90;;;;;;5033661;28;19913;-72
2022/01/09 02:11:20;;;;;;;;;;;6.80;99.90;;;;;;5031889;28;19936;-75
2022/01/09 02:13:46;;;;;;;;;;;6.70;99.90;;;;;;5039454;28;20128;-75
2022/01/09 02:16:17;;;;;;;;;;;6.80;99.90;;;;;;5030545;28;20141;-70
2022/01/09 02:18:46;;;;;;;;;;;6.80;99.90;;;;;;5021662;28;19913;-70
2022/01/09 02:21:15;;;;;;;;;;;6.70;99.90;;;;;;5012686;28;19947;-68
2022/01/09 02:23:44;;;;;;;;;;;6.70;99.90;;;;;;5045129;28;19919;-69
2022/01/09 02:26:10;;;;;;;;;;;6.70;99.90;;;;;;5042385;28;19946;-69
2022/01/09 02:28:36;;;;;;;;;;;6.70;99.90;;;;;;5027288;28;20338;-70
2022/01/09 02:31:02;;;;;;;;;;;6.70;99.90;;;;;;5041695;28;20593;-69
2022/01/09 02:33:27;;;;;;;;;;;6.60;99.90;;;;;;5036777;28;19920;-70
2022/01/09 02:35:53;;;;;;;;;;;6.60;99.90;;;;;;5029116;28;20209;-70
2022/01/09 02:38:19;;;;;;;;;;;6.60;99.90;;;;;;5034074;28;19924;-67
2022/01/09 02:40:49;;;;;;;;;;;6.60;99.90;;;;;;5032920;28;19914;-71
2022/01/09 02:43:14;;;;;;;;;;;6.60;99.90;;;;;;5048996;28;19919;-76
2022/01/09 02:45:41;;;;;;;;;;;6.60;99.90;;;;;;5051211;28;19913;-75
2022/01/09 02:48:09;;;;;;;;;;;6.60;99.90;;;;;;5056907;28;19977;-71
2022/01/09 02:50:39;;;;;;;;;;;6.60;99.90;;;;;;5063769;28;19974;-70
2022/01/09 02:53:16;;;;;;;;;;;6.60;99.90;;;;;;5049918;28;19917;-69
2022/01/09 02:55:43;;;;;;;;;;;6.60;99.90;;;;;;5038521;28;19917;-72
2022/01/09 02:58:08;;;;;;;;;;;6.50;99.90;;;;;;5032400;28;19917;-70
2022/01/09 03:00:35;;;;;;;;;;;6.50;99.90;;;;;;5029777;28;20464;-71
2022/01/09 03:03:01;;;;;;;;;;;6.40;99.90;;;;;;5029058;28;20507;-70
2022/01/09 03:05:27;;;;;;;;;;;6.50;99.90;;;;;;5029398;28;20007;-70
2022/01/09 03:07:53;;;;;;;;;;;6.40;99.90;;;;;;5030477;28;19992;-69
2022/01/09 03:10:20;;;;;;;;;;;6.40;99.90;;;;;;5037878;28;20302;-69
2022/01/09 03:12:46;;;;;;;;;;;6.40;99.90;;;;;;5027466;28;19983;-69
2022/01/09 03:15:12;;;;;;;;;;;6.40;99.90;;;;;;5033858;28;19913;-70
2022/01/09 03:17:37;;;;;;;;;;;6.30;99.90;;;;;;5030903;28;20004;-70
2022/01/09 03:20:04;;;;;;;;;;;6.30;99.90;;;;;;5027111;28;20247;-70
2022/01/09 03:22:29;;;;;;;;;;;6.30;99.90;;;;;;5029045;28;19921;-70
2022/01/09 03:24:55;;;;;;;;;;;6.30;99.90;;;;;;5031808;28;19917;-68
2022/01/09 03:27:21;;;;;;;;;;;6.20;99.90;;;;;;5023994;28;19917;-69
2022/01/09 03:29:46;;;;;;;;;;;6.20;99.90;;;;;;5046748;28;19923;-70
2022/01/09 03:32:12;;;;;;;;;;;6.20;99.90;;;;;;5027672;28;20371;-71
2022/01/09 03:34:38;;;;;;;;;;;6.20;99.90;;;;;;5028704;28;19913;-69
2022/01/09 03:37:03;;;;;;;;;;;6.20;99.90;;;;;;5048543;28;19916;-71
2022/01/09 03:39:29;;;;;;;;;;;6.20;99.90;;;;;;5047857;28;19913;-71
2022/01/09 03:41:57;;;;;;;;;;;6.30;99.90;;;;;;5029744;28;19916;-69
2022/01/09 03:44:22;;;;;;;;;;;6.20;99.90;;;;;;5031306;28;19921;-70
2022/01/09 03:46:48;;;;;;;;;;;6.10;99.90;;;;;;5029637;28;19978;-71
2022/01/09 03:49:13;;;;;;;;;;;6.10;99.90;;;;;;5028274;28;20188;-70
2022/01/09 03:51:39;;;;;;;;;;;6.20;99.90;;;;;;5026750;28;20137;-69
2022/01/09 03:54:05;;;;;;;;;;;6.20;99.90;;;;;;5027872;28;19909;-69
2022/01/09 03:56:30;;;;;;;;;;;6.10;99.90;;;;;;5032321;28;19958;-72
2022/01/09 03:58:56;;;;;;;;;;;6.20;99.90;;;;;;5032989;28;19909;-71
2022/01/09 04:01:21;;;;;;;;;;;6.10;99.90;;;;;;5026879;28;19917;-70
2022/01/09 04:03:47;;;;;;;;;;;6.20;99.90;;;;;;5009757;28;19913;-71
2022/01/09 04:06:12;;;;;;;;;;;6.20;99.90;;;;;;5027614;28;19913;-76
2022/01/09 04:08:38;;;;;;;;;;;6.10;99.90;;;;;;5027404;28;19948;-66
2022/01/09 04:11:04;;;;;;;;;;;6.10;99.90;;;;;;5040143;28;20003;-70
2022/01/09 04:13:30;;;;;;;;;;;6.10;99.90;;;;;;5065515;28;19917;-71
2022/01/09 04:15:56;;;;;;;;;;;6.00;99.90;;;;;;5036145;28;20393;-69
2022/01/09 04:18:22;;;;;;;;;;;6.00;99.90;;;;;;5048348;28;20409;-70
2022/01/09 04:20:48;;;;;;;;;;;6.00;99.90;;;;;;5047887;28;19970;-71
2022/01/09 04:23:14;;;;;;;;;;;5.90;99.90;;;;;;5047890;28;20301;-69
2022/01/09 04:25:40;;;;;;;;;;;5.90;99.90;;;;;;5037690;28;19912;-70
2022/01/09 04:28:06;;;;;;;;;;;5.90;99.90;;;;;;5047213;28;19991;-73
2022/01/09 04:30:31;;;;;;;;;;;5.90;99.90;;;;;;5047479;28;19917;-70
2022/01/09 04:32:57;;;;;;;;;;;5.90;99.90;;;;;;5038548;28;19948;-72
2022/01/09 04:35:22;;;;;;;;;;;5.90;99.90;;;;;;5026793;28;19986;-71
2022/01/09 04:37:48;;;;;;;;;;;6.00;99.90;;;;;;5029337;28;20344;-71
2022/01/09 04:40:16;;;;;;;;;;;6.00;99.90;;;;;;5012065;28;19923;-72
2022/01/09 04:42:47;;;;;;;;;;;5.90;99.90;;;;;;5042226;28;19912;-72
2022/01/09 04:45:15;;;;;;;;;;;5.90;99.90;;;;;;5046431;28;19913;-71
2022/01/09 04:47:43;;;;;;;;;;;5.90;99.90;;;;;;5046041;28;19995;-72
2022/01/09 04:50:13;;;;;;;;;;;5.90;99.90;;;;;;5046256;28;19917;-72
2022/01/09 04:52:39;;;;;;;;;;;5.90;99.90;;;;;;5013895;28;20231;-70
2022/01/09 04:55:05;;;;;;;;;;;6.00;99.90;;;;;;5011356;28;20203;-69
2022/01/09 04:57:30;;;;;;;;;;;6.00;99.90;;;;;;5006925;28;20016;-70
2022/01/09 04:59:56;;;;;;;;;;;6.00;99.90;;;;;;5018768;28;19917;-70
2022/01/09 05:02:21;;;;;;;;;;;6.00;99.90;;;;;;5013694;28;19969;-69
2022/01/09 05:04:47;;;;;;;;;;;5.90;99.90;;;;;;5013369;28;20537;-70
2022/01/09 05:07:12;;;;;;;;;;;5.90;99.90;;;;;;5010925;28;19920;-69
2022/01/09 05:09:38;;;;;;;;;;;5.90;99.90;;;;;;5015789;28;19917;-70
2022/01/09 05:12:03;;;;;;;;;;;5.90;99.90;;;;;;5024577;28;20374;-70
2022/01/09 05:14:29;;;;;;;;;;;5.80;99.90;;;;;;5019312;28;19917;-70
2022/01/09 05:16:54;;;;;;;;;;;5.80;99.90;;;;;;5024177;28;20309;-74
2022/01/09 05:19:27;;;;;;;;;;;5.80;99.90;;;;;;5016385;28;20290;-67
2022/01/09 05:21:53;;;;;;;;;;;5.80;99.90;;;;;;5019091;28;19910;-72
2022/01/09 05:24:18;;;;;;;;;;;5.80;99.90;;;;;;5009315;28;19989;-72
2022/01/09 05:26:44;;;;;;;;;;;5.80;99.90;;;;;;5018104;28;19925;-71
2022/01/09 05:29:09;;;;;;;;;;;5.70;99.90;;;;;;5013920;28;20116;-68
2022/01/09 05:31:35;;;;;;;;;;;5.70;99.90;;;;;;5001188;28;19909;-69
2022/01/09 05:34:00;;;;;;;;;;;5.70;99.90;;;;;;5015654;28;19996;-69
2022/01/09 05:36:26;;;;;;;;;;;5.70;99.90;;;;;;5027943;28;19948;-74
2022/01/09 05:38:51;;;;;;;;;;;5.80;99.90;;;;;;5044437;28;20417;-69
2022/01/09 05:41:17;;;;;;;;;;;5.80;99.90;;;;;;5031029;28;20012;-70
2022/01/09 05:43:42;;;;;;;;;;;5.80;99.90;;;;;;5019623;28;19917;-69
2022/01/09 05:46:08;;;;;;;;;;;5.80;99.90;;;;;;5013727;28;20400;-70
2022/01/09 05:48:33;;;;;;;;;;;5.80;99.90;;;;;;5019092;28;19913;-71
2022/01/09 05:50:59;;;;;;;;;;;5.80;99.90;;;;;;5021271;28;19917;-69
2022/01/09 05:53:24;;;;;;;;;;;5.80;99.90;;;;;;5009623;28;19909;-70
2022/01/09 05:55:50;;;;;;;;;;;5.70;99.90;;;;;;5023702;28;19912;-70
2022/01/09 05:58:15;;;;;;;;;;;5.70;99.90;;;;;;5017484;28;19971;-71
2022/01/09 06:00:41;;;;;;;;;;;5.70;99.90;;;;;;5018605;28;19913;-69
2022/01/09 06:03:06;;;;;;;;;;;5.70;99.90;;;;;;5013884;28;20222;-70
2022/01/09 06:05:32;;;;;;;;;;;5.70;99.90;;;;;;5012127;28;20118;-70
2022/01/09 06:07:57;;;;;;;;;;;5.80;99.90;;;;;;5011572;28;19918;-71
2022/01/09 06:10:23;;;;;;;;;;;5.80;99.90;;;;;;5019254;28;20287;-70
2022/01/09 06:12:48;;;;;;;;;;;5.80;99.90;;;;;;5032305;28;19925;-70
2022/01/09 06:15:14;;;;;;;;;;;5.80;99.90;;;;;;5025940;28;20358;-69
2022/01/09 06:17:40;;;;;;;;;;;5.80;99.90;;;;;;5025252;28;19923;-70
2022/01/09 06:20:07;;;;;;;;;;;5.80;99.90;;;;;;5029930;28;19912;-68
2022/01/09 06:22:32;;;;;;;;;;;5.80;99.90;;;;;;5020407;28;19940;-69
2022/01/09 06:24:57;;;;;;;;;;;5.80;99.90;;;;;;5033292;28;19913;-70
2022/01/09 06:27:23;;;;;;;;;;;5.80;99.90;;;;;;5010177;28;20664;-69
2022/01/09 06:29:49;;;;;;;;;;;5.80;99.90;;;;;;5010625;28;19976;-72
2022/01/09 06:32:14;;;;;;;;;;;5.80;99.90;;;;;;5022862;28;20082;-69
2022/01/09 06:34:43;;;;;;;;;;;5.80;99.90;;;;;;5021681;28;20164;-69
2022/01/09 06:37:10;;;;;;;;;;;5.80;99.90;;;;;;5020277;28;19966;-70
2022/01/09 06:39:36;;;;;;;;;;;5.80;99.90;;;;;;5029206;28;19909;-69
2022/01/09 06:42:02;;;;;;;;;;;5.80;99.90;;;;;;5019254;28;19925;-70
2022/01/09 06:44:27;;;;;;;;;;;5.80;99.90;;;;;;5021629;28;20070;-69
2022/01/09 06:46:53;;;;;;;;;;;5.80;99.90;;;;;;5020972;28;19924;-68
2022/01/09 06:49:18;;;;;;;;;;;5.70;99.90;;;;;;5025246;28;20067;-69
2022/01/09 06:51:44;;;;;;;;;;;5.60;99.90;;;;;;5023487;28;20319;-67
2022/01/09 06:54:09;;;;;;;;;;;5.60;99.90;;;;;;5031660;28;19924;-70
2022/01/09 06:56:35;;;;;;;;;;;5.50;99.90;;;;;;5031184;28;20364;-68
2022/01/09 06:59:00;;;;;;;;;;;5.40;99.90;;;;;;5016935;28;19913;-71
2022/01/09 07:01:26;;;;;;;;;;;5.30;99.90;;;;;;5050111;28;19913;-76
2022/01/09 07:03:51;;;;;;;;;;;5.20;99.90;;;;;;5035994;28;19916;-71
2022/01/09 07:06:17;;;;;;;;;;;5.20;99.90;;;;;;5038054;28;20023;-72
2022/01/09 07:08:43;;;;;;;;;;;5.20;99.90;;;;;;5031814;28;19935;-72
2022/01/09 07:11:09;;;;;;;;;;;5.30;99.90;;;;;;5030861;28;19921;-70
2022/01/09 07:13:37;;;;;;;;;;;5.30;99.90;;;;;;5015223;28;19981;-71
2022/01/09 07:16:03;;;;;;;;;;;5.40;99.90;;;;;;5021732;28;20436;-68
2022/01/09 07:18:28;;;;;;;;;;;5.30;99.90;;;;;;5020559;28;19921;-71
2022/01/09 07:20:54;;;;;;;;;;;5.50;99.90;;;;;;5011071;28;20019;-71
2022/01/09 07:23:19;;;;;;;;;;;5.40;99.90;;;;;;5020299;28;19964;-72
2022/01/09 07:25:45;;;;;;;;;;;5.50;99.90;;;;;;5019250;28;19972;-70
2022/01/09 07:28:10;;;;;;;;;;;5.50;99.90;;;;;;5019707;28;20008;-71
2022/01/09 07:30:36;;;;;;;;;;;5.50;99.90;;;;;;5021317;28;19917;-69
2022/01/09 07:33:04;;;;;;;;;;;5.50;99.90;;;;;;5022206;28;19995;-69
2022/01/09 07:35:30;;;;;;;;;;;5.50;99.90;;;;;;5023310;28;20240;-68
2022/01/09 07:37:55;;;;;;;;;;;5.50;99.90;;;;;;5014709;28;19913;-70
2022/01/09 07:40:21;;;;;;;;;;;5.50;99.90;;;;;;5021034;28;19917;-70
2022/01/09 07:42:47;;;;;;;;;;;5.50;99.90;;;;;;5017133;28;19917;-69
2022/01/09 07:45:13;;;;;;;;;;;5.60;99.90;;;;;;5023108;28;19914;-69
2022/01/09 07:47:39;;;;;;;;;;;5.50;99.90;;;;;;5020958;28;20583;-70
2022/01/09 07:50:05;;;;;;;;;;;5.40;99.90;;;;;;5019874;28;19917;-69
2022/01/09 07:52:34;;;;;;;;;;;5.30;99.90;;;;;;5014535;28;19917;-69
2022/01/09 07:55:00;;;;;;;;;;;5.30;99.90;;;;;;5027580;28;19974;-68
2022/01/09 07:57:25;;;;;;;;;;;5.20;99.90;;;;;;5030615;28;19913;-69
2022/01/09 07:59:51;;;;;;;;;;;5.30;99.90;;;;;;5030155;28;19920;-70
2022/01/09 08:02:16;;;;;;;;;;;5.30;99.90;;;;;;5031650;28;19919;-70
2022/01/09 08:04:42;;;;;;;;;;;5.30;99.90;;;;;;5024315;28;19913;-71
2022/01/09 08:07:07;;;;;;;;;;;5.30;99.90;;;;;;5017803;28;20326;-70
2022/01/09 08:09:33;;;;;;;;;;;5.20;99.90;;;;;;5019555;28;20012;-72
2022/01/09 08:11:58;;;;;;;;;;;5.20;99.90;;;;;;5026626;28;19917;-70
2022/01/09 08:14:24;;;;;;;;;;;5.20;99.90;;;;;;5016958;28;19954;-69
2022/01/09 08:16:49;;;;;;;;;;;5.20;99.90;;;;;;5031424;28;19956;-69
2022/01/09 08:19:15;;;;;;;;;;;5.30;99.90;;;;;;5048110;28;19912;-73
2022/01/09 08:21:40;;;;;;;;;;;5.20;99.90;;;;;;5048573;28;19913;-71
2022/01/09 08:24:06;;;;;;;;;;;5.20;99.90;;;;;;5046956;28;19909;-73
2022/01/09 08:26:31;;;;;;;;;;;5.30;99.90;;;;;;5046545;28;20006;-73
2022/01/09 08:28:57;;;;;;;;;;;5.30;99.90;;;;;;5046316;28;19913;-71
2022/01/09 08:31:22;;;;;;;;;;;5.40;99.90;;;;;;5047084;28;20389;-70
2022/01/09 08:33:48;;;;;;;;;;;5.40;99.90;;;;;;5045388;28;19913;-73
2022/01/09 08:36:13;;;;;;;;;;;5.50;99.90;;;;;;5047592;28;19968;-72
2022/01/09 08:38:39;;;;;;;;;;;5.50;99.90;;;;;;5034218;28;19986;-70
2022/01/09 08:41:05;;;;;;;;;;;5.50;99.90;;;;;;5036758;28;19943;-71
2022/01/09 08:43:31;;;;;;;;;;;5.50;99.90;;;;;;5034427;28;20382;-69
2022/01/09 08:45:57;;;;;;;;;;;5.60;99.90;;;;;;5034140;28;19912;-71
2022/01/09 08:48:22;;;;;;;;;;;5.60;99.90;;;;;;5034587;28;20182;-69
2022/01/09 08:50:48;;;;;;;;;;;5.60;99.90;;;;;;5049217;28;19934;-71
2022/01/09 08:53:15;;;;;;;;;;;5.70;99.90;;;;;;5037818;28;19920;-68
2022/01/09 08:55:41;;;;;;;;;;;5.60;99.90;;;;;;5035575;28;20015;-68
2022/01/09 08:58:06;;;;;;;;;;;5.70;99.90;;;;;;5027286;28;20402;-69
2022/01/09 09:00:32;;;;;;;;;;;5.70;99.90;;;;;;5018928;28;20444;-67
2022/01/09 09:02:57;;;;;;;;;;;5.70;99.90;;;;;;5012980;28;19909;-68
2022/01/09 09:05:23;;;;;;;;;;;5.70;99.90;;;;;;5016999;28;20278;-69
2022/01/09 09:07:48;;;;;;;;;;;5.80;99.90;;;;;;5017231;28;19921;-70
2022/01/09 09:10:14;;;;;;;;;;;5.80;99.90;;;;;;5017121;28;20000;-71
2022/01/09 09:12:39;;;;;;;;;;;5.80;99.90;;;;;;5016632;28;19924;-70
2022/01/09 09:15:05;;;;;;;;;;;5.80;99.90;;;;;;5009092;28;20374;-70
2022/01/09 09:17:31;;;;;;;;;;;5.90;99.90;;;;;;5022098;28;19914;-70
2022/01/09 09:19:57;;;;;;;;;;;5.80;99.90;;;;;;5017460;28;19913;-74
2022/01/09 09:22:22;;;;;;;;;;;5.80;99.90;;;;;;5021852;28;20197;-70
2022/01/09 09:24:48;;;;;;;;;;;5.80;99.90;;;;;;5017945;28;20534;-70
2022/01/09 09:27:14;;;;;;;;;;;5.80;99.90;;;;;;5014510;28;19917;-69
2022/01/09 09:29:39;;;;;;;;;;;5.70;99.90;;;;;;5000167;28;19944;-71
2022/01/09 09:32:05;;;;;;;;;;;5.60;99.90;;;;;;5023553;28;19913;-70
2022/01/09 09:34:31;;;;;;;;;;;5.50;99.90;;;;;;5017629;28;19949;-70
2022/01/09 09:36:56;;;;;;;;;;;5.40;99.90;;;;;;5032299;28;19956;-71
2022/01/09 09:39:22;;;;;;;;;;;5.30;99.90;;;;;;5032376;28;19917;-70
2022/01/09 09:41:49;;;;;;;;;;;5.30;99.90;;;;;;5022177;28;19982;-70
2022/01/09 09:44:15;;;;;;;;;;;5.30;99.90;;;;;;5035578;28;19917;-71
2022/01/09 09:46:46;;;;;;;;;;;5.40;99.90;;;;;;5023244;28;19977;-70
2022/01/09 09:49:12;;;;;;;;;;;5.50;99.90;;;;;;5018771;28;19924;-71
2022/01/09 09:51:37;;;;;;;;;;;5.60;99.90;;;;;;5023418;28;19917;-72
2022/01/09 09:54:03;;;;;;;;;;;5.70;99.90;;;;;;5013687;28;20008;-72
2022/01/09 09:56:28;;;;;;;;;;;5.80;99.90;;;;;;5029606;28;19921;-75
2022/01/09 09:58:57;;;;;;;;;;;6.00;99.90;;;;;;5020568;28;19948;-71
2022/01/09 10:01:36;;;;;;;;;;;6.00;99.90;;;;;;5014846;28;19940;-70
2022/01/09 10:04:06;;;;;;;;;;;6.10;99.90;;;;;;5012697;28;20000;-68
2022/01/09 10:06:44;;;;;;;;;;;6.10;99.90;;;;;;5018534;28;20011;-71
2022/01/09 10:09:14;;;;;;;;;;;6.10;99.90;;;;;;5022524;28;19921;-70
2022/01/09 10:11:41;;;;;;;;;;;6.10;99.90;;;;;;5025607;28;19973;-70
2022/01/09 10:14:11;;;;;;;;;;;6.20;99.90;;;;;;5016902;28;19913;-69
2022/01/09 10:16:36;;;;;;;;;;;6.30;99.90;;;;;;5034975;28;20409;-70
2022/01/09 10:19:02;;;;;;;;;;;6.30;99.90;;;;;;5025386;28;19910;-74
2022/01/09 10:21:27;;;;;;;;;;;6.30;99.90;;;;;;5029894;28;19957;-73
2022/01/09 10:23:57;;;;;;;;;;;6.30;99.90;;;;;;5025638;28;19940;-71
2022/01/09 10:26:23;;;;;;;;;;;6.20;99.90;;;;;;5032652;28;19964;-74
2022/01/09 10:28:48;;;;;;;;;;;6.10;99.90;;;;;;5035875;28;19936;-72
2022/01/09 10:31:18;;;;;;;;;;;5.90;99.90;;;;;;5035097;28;19943;-71
2022/01/09 10:34:03;;;;;;;;;;;5.80;99.90;;;;;;5040177;28;19913;-73
2022/01/09 10:36:33;;;;;;;;;;;5.80;99.90;;;;;;5026612;28;20008;-67
2022/01/09 10:39:03;;;;;;;;;;;5.90;99.90;;;;;;5024820;28;19960;-74
2022/01/09 10:41:43;;;;;;;;;;;5.90;99.90;;;;;;5030592;28;19913;-71
2022/01/09 10:44:16;;;;;;;;;;;6.00;99.90;;;;;;5014473;28;19917;-72
2022/01/09 10:46:51;;;;;;;;;;;6.00;99.90;;;;;;5034304;28;20002;-71
2022/01/09 10:49:16;;;;;;;;;;;6.00;99.90;;;;;;5022079;28;19944;-70
2022/01/09 10:51:42;;;;;;;;;;;6.00;99.90;;;;;;5022686;28;19964;-70
2022/01/09 10:54:07;;;;;;;;;;;5.90;99.90;;;;;;5013971;28;19917;-68
2022/01/09 10:56:33;;;;;;;;;;;5.90;99.90;;;;;;5028727;28;19920;-72
2022/01/09 10:58:58;;;;;;;;;;;5.90;99.90;;;;;;5029210;28;19917;-70
2022/01/09 11:01:24;;;;;;;;;;;5.90;99.90;;;;;;5025618;28;20342;-69
2022/01/09 11:03:51;;;;;;;;;;;6.00;99.90;;;;;;5034638;28;20139;-71
2022/01/09 11:06:17;;;;;;;;;;;6.10;99.90;;;;;;5026203;28;20390;-69
2022/01/09 11:08:43;;;;;;;;;;;6.20;99.90;;;;;;5027841;28;19936;-69
2022/01/09 11:11:15;;;;;;;;;;;6.20;99.90;;;;;;5035019;28;19959;-69
2022/01/09 11:13:42;;;;;;;;;;;6.30;99.90;;;;;;5032604;28;20151;-70
2022/01/09 11:18:52;;;;;;;;;;;6.40;99.90;;;;;;5027230;28;20413;-74
2022/01/09 11:21:17;;;;;;;;;;;6.40;99.90;;;;;;5016310;28;19956;-70
2022/01/09 11:23:58;;;;;;;;;;;6.60;99.90;;;;;;5041677;28;19909;-72
2022/01/09 11:26:27;;;;;;;;;;;6.70;99.90;;;;;;5039626;28;19923;-72
2022/01/09 11:28:55;;;;;;;;;;;6.70;99.90;;;;;;5029062;28;20386;-69
2022/01/09 11:31:23;;;;;;;;;;;6.70;99.90;;;;;;5026395;28;20429;-71
2022/01/09 11:34:09;;;;;;;;;;;6.70;99.90;;;;;;5047137;28;21372;-71
2022/01/09 11:36:54;;;;;;;;;;;6.70;99.90;;;;;;5022295;28;19975;-70
2022/01/09 11:39:29;;;;;;;;;;;6.70;99.90;;;;;;5028724;28;20494;-70
2022/01/09 11:42:12;;;;;;;;;;;6.90;99.90;;;;;;5029253;28;19962;-69
2022/01/09 11:44:47;;;;;;;;;;;7.10;99.90;;;;;;5039997;28;19975;-68
2022/01/09 11:47:13;;;;;;;;;;;7.00;99.90;;;;;;5030022;28;20345;-70
2022/01/09 11:49:58;;;;;;;;;;;7.00;99.90;;;;;;5025566;28;20432;-68
2022/01/09 11:52:28;;;;;;;;;;;7.40;99.90;;;;;;5021760;28;20382;-69
2022/01/09 11:54:56;;;;;;;;;;;7.70;99.90;;;;;;5025207;28;19919;-70
2022/01/09 11:57:43;;;;;;;;;;;7.90;99.90;;;;;;5009159;28;20283;-69
2022/01/09 12:00:28;;;;;;;;;;;8.10;99.90;;;;;;5026369;28;19933;-71
2022/01/09 12:02:54;;;;;;;;;;;8.30;99.90;;;;;;5010396;28;20386;-70
2022/01/09 12:05:19;;;;;;;;;;;8.90;99.90;;;;;;5024386;28;19967;-72
2022/01/09 12:07:45;;;;;;;;;;;9.20;99.90;;;;;;5025749;28;19924;-71
2022/01/09 12:10:16;;;;;;;;;;;9.00;99.90;;;;;;5036721;28;20059;-71
2022/01/09 12:12:42;;;;;;;;;;;8.80;99.90;;;;;;5027174;28;20353;-72
2022/01/09 12:15:08;;;;;;;;;;;8.80;99.90;;;;;;5036465;28;19921;-71
2022/01/09 12:17:36;;;;;;;;;;;8.70;99.90;;;;;;5055169;28;19913;-71
2022/01/09 12:20:13;;;;;;;;;;;8.10;99.90;;;;;;5048241;28;19913;-72
2022/01/09 12:22:49;;;;;;;;;;;8.00;99.90;;;;;;5037903;28;19917;-68
2022/01/09 12:27:54;;;;;;;;;;;8.60;99.90;;;;;;5035546;28;19982;-71
2022/01/09 12:30:51;;;;;;;;;;;8.10;99.90;;;;;;5040960;28;20294;-72
2022/01/09 12:33:25;;;;;;;;;;;7.90;99.90;;;;;;5015810;28;19959;-71
2022/01/09 12:35:59;;;;;;;;;;;7.90;99.90;;;;;;5037026;28;20432;-74
2022/01/09 12:38:29;;;;;;;;;;;7.70;99.90;;;;;;5028435;28;20389;-71
2022/01/09 12:41:15;;;;;;;;;;;7.70;99.90;;;;;;5028547;28;20379;-71
2022/01/09 12:43:41;;;;;;;;;;;7.70;99.90;;;;;;5017180;28;19960;-71
2022/01/09 12:46:15;;;;;;;;;;;7.80;99.90;;;;;;5046851;28;19920;-70
2022/01/09 12:48:40;;;;;;;;;;;7.80;99.90;;;;;;5030561;28;19967;-71
2022/01/09 12:51:10;;;;;;;;;;;7.70;99.90;;;;;;5046762;28;20299;-70
2022/01/09 12:53:37;;;;;;;;;;;7.40;99.90;;;;;;5048105;28;19944;-71
2022/01/09 12:56:03;;;;;;;;;;;7.50;99.90;;;;;;5043524;28;19936;-71
2022/01/09 12:58:28;;;;;;;;;;;7.40;99.90;;;;;;5028059;28;19923;-71
2022/01/09 13:00:54;;;;;;;;;;;7.50;99.90;;;;;;5045196;28;20522;-72
2022/01/09 13:03:20;;;;;;;;;;;7.50;99.90;;;;;;5041340;28;19914;-72
2022/01/09 13:06:07;;;;;;;;;;;7.40;99.90;;;;;;5032334;28;19917;-73
2022/01/09 13:08:33;;;;;;;;;;;7.30;99.90;;;;;;5027655;28;20712;-70
2022/01/09 13:11:00;;;;;;;;;;;7.40;99.90;;;;;;5027394;28;19919;-70
2022/01/09 13:13:27;;;;;;;;;;;7.40;99.90;;;;;;5047176;28;19909;-71
2022/01/09 13:15:53;;;;;;;;;;;7.40;99.90;;;;;;5047066;28;19945;-69
2022/01/09 13:18:39;;;;;;;;;;;7.30;99.90;;;;;;5038388;28;19913;-71
2022/01/09 13:21:12;;;;;;;;;;;7.40;99.90;;;;;;5017947;28;19913;-70
2022/01/09 13:23:51;;;;;;;;;;;7.70;99.90;;;;;;5026993;28;19909;-71
2022/01/09 13:26:17;;;;;;;;;;;7.90;99.90;;;;;;5040270;28;19917;-70
2022/01/09 13:28:46;;;;;;;;;;;7.80;99.90;;;;;;5029509;28;19909;-71
2022/01/09 13:31:12;;;;;;;;;;;7.40;99.90;;;;;;5033813;28;19921;-73
2022/01/09 13:33:51;;;;;;;;;;;7.10;99.90;;;;;;5020715;28;20356;-72
2022/01/09 13:36:31;;;;;;;;;;;6.90;99.90;;;;;;5021449;28;19909;-71
2022/01/09 13:38:57;;;;;;;;;;;6.80;99.90;;;;;;5008271;28;19913;-73
2022/01/09 13:41:23;;;;;;;;;;;6.50;99.90;;;;;;5026641;28;20271;-73
2022/01/09 13:43:52;;;;;;;;;;;6.50;99.90;;;;;;5025645;28;19909;-70
2022/01/09 13:46:17;;;;;;;;;;;6.60;99.90;;;;;;5025328;28;19914;-72
2022/01/09 13:48:46;;;;;;;;;;;6.70;99.90;;;;;;5033206;28;20016;-72
2022/01/09 13:51:12;;;;;;;;;;;6.70;99.90;;;;;;5028792;28;20089;-71
2022/01/09 13:53:37;;;;;;;;;;;6.90;99.90;;;;;;5046333;28;19919;-72
2022/01/09 13:56:16;;;;;;;;;;;7.20;99.90;;;;;;5034348;28;19913;-71
2022/01/09 13:58:41;;;;;;;;;;;7.30;99.90;;;;;;5027409;28;19920;-71
2022/01/09 14:01:07;;;;;;;;;;;7.30;99.90;;;;;;5042135;28;19913;-72
2022/01/09 14:03:32;;;;;;;;;;;7.30;99.90;;;;;;5036125;28;19920;-71
2022/01/09 14:05:58;;;;;;;;;;;7.40;99.90;;;;;;5047095;28;19967;-69
2022/01/09 14:08:37;;;;;;;;;;;7.40;99.90;;;;;;5036006;28;20309;-71
2022/01/09 14:11:07;;;;;;;;;;;7.30;99.90;;;;;;5027959;28;19917;-71
2022/01/09 14:13:37;;;;;;;;;;;7.40;99.90;;;;;;5027802;28;20248;-70
2022/01/09 14:16:13;;;;;;;;;;;7.40;99.90;;;;;;5028480;28;19913;-69
2022/01/09 14:18:39;;;;;;;;;;;7.40;99.90;;;;;;5033782;28;19920;-72
2022/01/09 14:21:09;;;;;;;;;;;7.40;99.90;;;;;;5025583;28;19913;-70
2022/01/09 14:23:36;;;;;;;;;;;7.40;99.90;;;;;;5027876;28;19913;-76
2022/01/09 14:26:20;;;;;;;;;;;7.40;99.90;;;;;;5031480;28;20380;-70
2022/01/09 14:28:49;;;;;;;;;;;7.20;99.90;;;;;;5026656;28;19944;-69
2022/01/09 14:31:16;;;;;;;;;;;7.20;99.90;;;;;;5029296;28;20354;-72
2022/01/09 14:33:46;;;;;;;;;;;7.10;99.90;;;;;;5032927;28;20224;-72
2022/01/09 14:36:13;;;;;;;;;;;7.00;99.90;;;;;;5029432;28;19957;-68